createdAt,value
2023-05-19T00:01:17.576Z,14.05
2023-05-19T00:04:21.345Z,14.10
2023-05-19T00:07:23.772Z,13.97
2023-05-19T00:10:31.652Z,14.01
2023-05-19T00:13:34.625Z,14.18
2023-05-19T00:16:38.113Z,14.01
2023-05-19T00:19:40.569Z,14.00
2023-05-19T00:22:45.034Z,13.99
2023-05-19T00:25:47.479Z,13.92
2023-05-19T00:28:50.355Z,14.04
2023-05-19T00:31:52.808Z,13.97
2023-05-19T00:34:55.207Z,13.94
2023-05-19T00:37:57.619Z,13.88
2023-05-19T00:41:00.645Z,13.90
2023-05-19T00:44:03.027Z,13.99
2023-05-19T00:47:05.445Z,13.93
2023-05-19T00:50:08.061Z,13.94
2023-05-19T00:53:10.379Z,14.00
2023-05-19T00:56:12.749Z,13.92
2023-05-19T00:59:15.183Z,13.75
2023-05-19T01:02:18.158Z,13.78
2023-05-19T01:05:20.536Z,13.72
2023-05-19T01:08:22.973Z,13.82
2023-05-19T01:11:25.339Z,13.79
2023-05-19T01:14:29.450Z,13.88
2023-05-19T01:17:46.001Z,13.79
2023-05-19T01:20:52.635Z,13.73
2023-05-19T01:24:23.021Z,13.73
2023-05-19T01:27:54.130Z,13.52
2023-05-19T01:30:57.084Z,13.75
2023-05-19T01:33:59.495Z,13.69
2023-05-19T01:37:01.958Z,13.78
2023-05-19T01:40:04.895Z,13.77
2023-05-19T01:43:08.528Z,13.70
2023-05-19T01:46:11.087Z,13.53
2023-05-19T01:49:13.587Z,13.53
2023-05-19T01:52:15.955Z,13.54
2023-05-19T01:55:18.319Z,13.49
2023-05-19T01:58:20.886Z,13.56
2023-05-19T02:01:29.600Z,13.66
2023-05-19T02:04:51.677Z,13.84
2023-05-19T02:08:11.783Z,13.83
2023-05-19T02:11:26.368Z,13.92
2023-05-19T02:14:52.917Z,13.77
2023-05-19T02:17:56.021Z,13.76
2023-05-19T02:20:58.345Z,13.86
2023-05-19T02:24:00.939Z,13.90
2023-05-19T02:27:03.427Z,13.93
2023-05-19T02:30:06.544Z,13.97
2023-05-19T02:33:08.969Z,13.90
2023-05-19T02:36:11.403Z,13.87
2023-05-19T02:39:13.864Z,13.83
2023-05-19T02:42:18.310Z,13.86
2023-05-19T02:45:20.711Z,13.75
2023-05-19T02:48:23.105Z,13.78
2023-05-19T02:51:25.455Z,13.65
2023-05-19T02:54:27.845Z,13.64
2023-05-19T02:57:31.865Z,13.74
2023-05-19T03:00:34.509Z,13.74
2023-05-19T03:03:37.151Z,13.72
2023-05-19T03:06:40.071Z,13.76
2023-05-19T03:09:42.458Z,13.66
2023-05-19T03:12:44.844Z,13.72
2023-05-19T03:15:47.605Z,13.75
2023-05-19T03:18:50.057Z,13.79
2023-05-19T03:21:52.732Z,13.83
2023-05-19T03:24:55.395Z,13.85
2023-05-19T03:27:57.893Z,13.82
2023-05-19T03:31:00.467Z,13.79
2023-05-19T03:34:08.515Z,13.81
2023-05-19T03:37:11.092Z,13.68
2023-05-19T03:40:15.734Z,13.91
2023-05-19T03:43:19.849Z,13.81
2023-05-19T03:46:28.462Z,13.94
2023-05-19T03:49:49.399Z,13.94
2023-05-19T03:53:10.432Z,13.96
2023-05-19T03:56:18.244Z,14.05
2023-05-19T03:59:20.719Z,14.09
2023-05-19T04:02:23.118Z,14.09
2023-05-19T04:05:25.569Z,14.78
2023-05-19T04:08:29.385Z,15.40
2023-05-19T04:11:31.953Z,15.72
2023-05-19T04:14:34.332Z,16.31
2023-05-19T04:17:36.850Z,16.71
2023-05-19T04:20:39.186Z,17.09
2023-05-19T04:23:41.711Z,17.10
2023-05-19T04:26:46.253Z,17.18
2023-05-19T04:29:50.553Z,17.16
2023-05-19T04:32:53.017Z,16.91
2023-05-19T04:35:55.901Z,17.08
2023-05-19T04:39:02.393Z,16.60
2023-05-19T04:42:05.762Z,16.03
2023-05-19T04:45:14.040Z,15.50
2023-05-19T04:48:19.255Z,15.14
2023-05-19T04:52:31.825Z,15.02
2023-05-19T04:55:34.819Z,14.83
2023-05-19T04:58:39.709Z,14.59
2023-05-19T05:01:44.180Z,14.69
2023-05-19T05:04:49.153Z,14.61
2023-05-19T05:07:54.194Z,14.59
2023-05-19T05:10:58.839Z,14.59
2023-05-19T05:14:02.063Z,14.58
2023-05-19T05:17:06.259Z,14.54
2023-05-19T05:20:09.543Z,14.54
2023-05-19T05:23:15.281Z,14.58
2023-05-19T05:26:20.011Z,14.62
2023-05-19T05:29:24.969Z,14.57
2023-05-19T05:32:28.251Z,14.59
2023-05-19T05:35:31.160Z,14.70
2023-05-19T05:38:33.926Z,14.85
2023-05-19T05:41:36.503Z,14.86
2023-05-19T05:44:45.300Z,14.86
2023-05-19T05:47:48.022Z,14.89
2023-05-19T05:50:51.002Z,14.89
2023-05-19T05:53:57.390Z,14.69
2023-05-19T05:57:07.464Z,14.79
2023-05-19T06:00:15.509Z,14.64
2023-05-19T06:03:18.048Z,14.83
2023-05-19T06:06:21.388Z,14.95
2023-05-19T06:09:23.811Z,15.00
2023-05-19T06:12:27.385Z,15.02
2023-05-19T06:15:30.404Z,15.15
2023-05-19T06:18:40.647Z,15.27
2023-05-19T06:21:43.324Z,15.09
2023-05-19T06:24:45.921Z,15.06
2023-05-19T06:27:48.464Z,15.28
2023-05-19T06:30:51.844Z,15.31
2023-05-19T06:34:17.726Z,15.47
2023-05-19T06:37:23.130Z,15.58
2023-05-19T06:40:25.942Z,15.71
2023-05-19T06:43:30.320Z,15.81
2023-05-19T06:46:37.786Z,15.88
2023-05-19T06:49:40.795Z,15.85
2023-05-19T06:52:44.412Z,15.95
2023-05-19T06:55:58.736Z,15.98
2023-05-19T06:59:04.149Z,15.95
2023-05-19T07:02:10.953Z,16.08
2023-05-19T07:05:13.482Z,16.02
2023-05-19T07:08:16.005Z,16.10
2023-05-19T07:11:18.916Z,16.13
2023-05-19T07:14:23.421Z,16.01
2023-05-19T07:17:26.025Z,16.06
2023-05-19T07:20:28.607Z,16.06
2023-05-19T07:23:32.513Z,16.07
2023-05-19T07:26:34.949Z,16.29
2023-05-19T07:29:37.415Z,16.24
2023-05-19T07:32:39.798Z,16.57
2023-05-19T07:35:42.235Z,16.52
2023-05-19T07:38:48.519Z,16.83
2023-05-19T07:41:54.375Z,17.21
2023-05-19T07:44:56.778Z,17.20
2023-05-19T07:47:59.356Z,17.28
2023-05-19T07:51:02.404Z,17.18
2023-05-19T07:54:04.797Z,17.21
2023-05-19T07:57:07.167Z,17.15
2023-05-19T08:00:09.991Z,17.07
2023-05-19T08:03:17.903Z,16.85
2023-05-19T08:06:21.336Z,16.77
2023-05-19T08:09:23.690Z,16.73
2023-05-19T08:12:26.109Z,16.77
2023-05-19T08:15:28.612Z,17.04
2023-05-19T08:18:31.238Z,17.06
2023-05-19T08:21:34.733Z,17.23
2023-05-19T08:24:37.294Z,17.24
2023-05-19T08:27:39.642Z,17.14
2023-05-19T08:30:41.993Z,17.27
2023-05-19T08:33:44.643Z,17.52
2023-05-19T09:30:53.553Z,19.89
2023-05-19T09:33:55.930Z,19.77
2023-05-19T09:37:00.036Z,19.76
2023-05-19T09:40:02.463Z,20.19
2023-05-19T09:43:05.669Z,20.20
2023-05-19T09:46:10.582Z,19.93
2023-05-19T09:49:14.514Z,19.75
2023-05-19T09:52:16.891Z,20.06
2023-05-19T09:55:23.249Z,20.39
2023-05-19T09:58:26.582Z,20.47
2023-05-19T10:01:29.288Z,20.49
2023-05-19T10:04:32.005Z,20.30
2023-05-19T10:07:34.513Z,20.54
2023-05-19T10:10:38.165Z,20.64
2023-05-19T10:13:40.663Z,20.40
2023-05-19T10:16:43.666Z,20.64
2023-05-19T10:19:46.192Z,20.77
2023-05-19T10:22:48.854Z,20.72
2023-05-19T10:25:52.165Z,20.93
2023-05-19T10:28:54.530Z,21.28
2023-05-19T10:31:59.369Z,21.16
2023-05-19T10:35:13.934Z,20.89
2023-05-19T10:38:43.131Z,20.90
2023-05-19T10:42:09.864Z,20.88
2023-05-19T10:45:20.312Z,21.07
2023-05-19T10:48:23.332Z,20.89
2023-05-19T10:51:32.391Z,21.29
2023-05-19T10:54:47.199Z,21.72
2023-05-19T10:57:58.396Z,21.96
2023-05-19T11:01:01.449Z,21.79
2023-05-19T11:04:14.102Z,21.72
2023-05-19T11:07:24.649Z,21.93
2023-05-19T11:10:27.037Z,22.26
2023-05-19T11:13:29.394Z,22.09
2023-05-19T11:16:32.447Z,23.03
2023-05-19T11:19:35.438Z,23.07
2023-05-19T11:22:38.972Z,22.84
2023-05-19T11:25:48.789Z,22.57
2023-05-19T11:28:51.270Z,22.66
2023-05-19T11:31:53.706Z,22.92
2023-05-19T11:34:56.734Z,23.09
2023-05-19T11:37:59.243Z,23.02
2023-05-19T11:41:01.917Z,23.04
2023-05-19T11:44:04.395Z,22.89
2023-05-19T11:47:07.095Z,22.46
2023-05-19T11:50:11.376Z,22.49
2023-05-19T11:53:13.865Z,22.52
2023-05-19T11:56:16.481Z,22.68
2023-05-19T11:59:18.885Z,22.51
2023-05-19T12:02:22.688Z,22.37
2023-05-19T12:05:25.758Z,22.30
2023-05-19T12:08:29.524Z,22.11
2023-05-19T12:11:31.991Z,22.77
2023-05-19T12:14:34.652Z,23.24
2023-05-19T12:17:37.146Z,23.50
2023-05-19T12:20:39.588Z,23.56
2023-05-19T12:23:42.449Z,23.80
2023-05-19T12:26:44.842Z,23.65
2023-05-19T12:29:52.360Z,23.13
2023-05-19T12:32:56.688Z,23.66
2023-05-19T12:35:59.119Z,23.42
2023-05-19T12:39:01.949Z,23.11
2023-05-19T12:42:04.873Z,23.08
2023-05-19T12:45:07.930Z,23.01
2023-05-19T12:48:16.038Z,23.08
2023-05-19T12:51:19.488Z,22.81
2023-05-19T12:54:22.365Z,22.77
2023-05-19T12:57:26.223Z,22.60
2023-05-19T13:00:31.242Z,22.55
2023-05-19T13:03:34.324Z,22.54
2023-05-19T13:06:36.920Z,22.34
2023-05-19T13:09:39.352Z,22.34
2023-05-19T13:12:41.729Z,22.44
2023-05-19T13:15:44.968Z,22.95
2023-05-19T13:18:47.469Z,23.15
2023-05-19T13:21:51.252Z,23.33
2023-05-19T13:24:53.633Z,22.99
2023-05-19T13:27:59.480Z,22.82
2023-05-19T13:31:01.946Z,22.46
2023-05-19T13:34:04.414Z,22.41
2023-05-19T13:37:10.050Z,22.47
2023-05-19T13:40:13.417Z,22.31
2023-05-19T13:43:15.813Z,22.45
2023-05-19T13:46:19.263Z,22.58
2023-05-19T13:49:24.900Z,22.55
2023-05-19T13:52:29.042Z,22.72
2023-05-19T13:55:33.129Z,22.95
2023-05-19T13:58:35.535Z,23.23
2023-05-19T14:01:38.052Z,23.33
2023-05-19T14:04:40.627Z,23.19
2023-05-19T14:07:43.093Z,23.20
2023-05-19T14:10:48.616Z,23.36
2023-05-19T14:13:52.720Z,23.81
2023-05-19T14:16:56.156Z,23.96
2023-05-19T14:19:58.556Z,24.10
2023-05-19T14:23:00.910Z,24.15
2023-05-19T14:26:03.305Z,23.81
2023-05-19T14:29:06.113Z,23.98
2023-05-19T14:32:08.580Z,23.96
2023-05-19T14:35:11.194Z,24.10
2023-05-19T14:38:13.675Z,23.84
2023-05-19T14:41:16.069Z,24.28
2023-05-19T14:44:18.805Z,24.11
2023-05-19T14:47:21.518Z,24.11
2023-05-19T14:50:24.026Z,24.15
2023-05-19T14:53:26.490Z,24.34
2023-05-19T14:56:28.955Z,24.37
2023-05-19T14:59:31.469Z,24.36
2023-05-19T15:02:33.918Z,24.18
2023-05-19T15:05:40.337Z,24.14
2023-05-19T15:08:42.774Z,23.43
2023-05-19T15:11:45.153Z,23.48
2023-05-19T15:14:47.571Z,23.48
2023-05-19T15:17:50.074Z,23.37
2023-05-19T15:20:52.453Z,23.32
2023-05-19T15:23:54.851Z,23.32
2023-05-19T15:26:57.268Z,23.03
2023-05-19T15:29:59.708Z,23.00
2023-05-19T15:33:02.115Z,23.12
2023-05-19T15:36:04.732Z,23.38
2023-05-19T15:39:07.142Z,23.41
2023-05-19T15:42:09.547Z,23.45
2023-05-19T15:45:12.007Z,23.37
2023-05-19T15:48:14.362Z,23.57
2023-05-19T15:51:16.721Z,23.29
2023-05-19T15:54:19.070Z,23.22
2023-05-19T15:57:21.430Z,23.08
2023-05-19T16:00:23.944Z,23.22
2023-05-19T16:03:26.463Z,23.23
2023-05-19T16:06:29.034Z,23.32
2023-05-19T16:09:31.434Z,23.29
2023-05-19T16:12:33.923Z,23.26
2023-05-19T16:15:36.634Z,23.10
2023-05-19T16:18:39.022Z,23.00
2023-05-19T16:21:41.427Z,22.95
2023-05-19T16:24:43.890Z,22.86
2023-05-19T16:27:46.280Z,22.77
2023-05-19T16:30:48.686Z,22.88
2023-05-19T16:33:51.098Z,22.64
2023-05-19T16:36:53.491Z,22.57
2023-05-19T16:39:55.960Z,22.46
2023-05-19T16:42:58.461Z,22.38
2023-05-19T16:46:03.554Z,22.22
2023-05-19T16:49:06.655Z,22.14
2023-05-19T16:52:09.025Z,22.18
2023-05-19T16:55:11.570Z,22.24
2023-05-19T16:58:14.053Z,22.05
2023-05-19T17:01:17.489Z,21.81
2023-05-19T17:04:19.910Z,21.62
2023-05-19T17:07:22.324Z,21.39
2023-05-19T17:10:24.680Z,21.12
2023-05-19T17:13:28.819Z,21.02
2023-05-19T17:16:31.277Z,20.97
2023-05-19T17:19:33.808Z,20.75
2023-05-19T17:22:36.653Z,20.70
2023-05-19T17:25:39.066Z,20.70
2023-05-19T17:28:41.458Z,20.46
2023-05-19T17:31:44.123Z,20.35
2023-05-19T17:34:46.499Z,20.30
2023-05-19T17:37:48.857Z,20.14
2023-05-19T17:40:51.260Z,20.26
2023-05-19T17:43:53.676Z,20.31
2023-05-19T17:46:56.277Z,20.21
2023-05-19T17:49:58.802Z,20.18
2023-05-19T17:53:01.678Z,20.06
2023-05-19T17:56:06.638Z,20.02
2023-05-19T17:59:09.320Z,20.02
2023-05-19T18:02:12.220Z,19.76
2023-05-19T18:05:15.458Z,19.79
2023-05-19T18:08:18.270Z,19.69
2023-05-19T18:11:21.435Z,19.59
2023-05-19T18:14:23.881Z,19.64
2023-05-19T18:17:26.333Z,19.55
2023-05-19T18:20:30.924Z,19.37
2023-05-19T18:23:33.521Z,19.33
2023-05-19T18:26:37.888Z,19.30
2023-05-19T18:29:40.311Z,19.26
2023-05-19T18:32:42.775Z,19.09
2023-05-19T18:35:46.150Z,19.17
2023-05-19T18:38:48.530Z,19.03
2023-05-19T18:41:51.026Z,18.91
2023-05-19T18:44:53.434Z,18.67
2023-05-19T18:47:56.345Z,18.60
2023-05-19T18:50:59.356Z,18.46
2023-05-19T18:54:01.904Z,18.49
2023-05-19T18:57:04.819Z,18.45
2023-05-19T19:00:07.964Z,18.39
2023-05-19T19:03:11.872Z,18.44
2023-05-19T19:06:14.313Z,18.42
2023-05-19T19:09:16.729Z,18.43
2023-05-19T19:12:20.406Z,18.31
2023-05-19T19:15:23.105Z,18.32
2023-05-19T19:18:26.637Z,18.29
2023-05-19T19:21:29.941Z,18.24
2023-05-19T19:24:32.281Z,18.24
2023-05-19T19:27:35.752Z,18.24
2023-05-19T19:30:38.153Z,18.04
2023-05-19T19:33:43.364Z,18.05
2023-05-19T19:36:47.893Z,18.07
2023-05-19T19:39:50.418Z,17.87
2023-05-19T19:42:52.920Z,17.85
2023-05-19T19:46:01.874Z,17.88
2023-05-19T19:49:04.370Z,17.82
2023-05-19T19:52:06.763Z,17.79
2023-05-19T19:55:09.809Z,17.67
2023-05-19T19:58:12.682Z,17.78
2023-05-19T20:01:16.019Z,17.64
2023-05-19T20:04:18.674Z,17.63
2023-05-19T20:07:23.379Z,17.69
2023-05-19T20:10:25.822Z,17.59
2023-05-19T20:13:28.591Z,17.65
2023-05-19T20:16:32.035Z,17.70
2023-05-19T20:19:34.544Z,17.77
2023-05-19T20:22:37.132Z,17.72
2023-05-19T20:25:57.916Z,17.71
2023-05-19T20:29:05.317Z,17.71
2023-05-19T20:32:07.773Z,17.60
2023-05-19T20:35:10.290Z,17.61
2023-05-19T20:38:12.680Z,17.60
2023-05-19T20:41:15.248Z,17.47
2023-05-19T20:44:17.703Z,17.41
2023-05-19T20:47:21.076Z,17.36
2023-05-19T20:50:23.519Z,17.30
2023-05-19T20:53:25.897Z,17.24
2023-05-19T20:56:28.288Z,17.23
2023-05-19T20:59:30.801Z,17.30
2023-05-19T21:02:33.243Z,17.26
2023-05-19T21:05:36.037Z,17.13
2023-05-19T21:08:38.429Z,17.11
2023-05-19T21:11:41.116Z,17.05
2023-05-19T21:14:43.485Z,17.00
2023-05-19T21:17:46.734Z,16.87
2023-05-19T21:20:49.214Z,16.89
2023-05-19T21:23:51.922Z,16.78
2023-05-19T21:26:54.327Z,16.64
2023-05-19T21:29:56.782Z,16.75
2023-05-19T21:32:59.454Z,16.65
2023-05-19T21:36:01.958Z,16.78
2023-05-19T21:39:04.658Z,16.72
2023-05-19T21:42:07.117Z,16.68
2023-05-19T21:45:09.984Z,16.76
2023-05-19T21:48:12.418Z,16.64
2023-05-19T21:51:14.874Z,16.47
2023-05-19T21:54:17.309Z,16.51
2023-05-19T21:57:19.722Z,16.50
2023-05-19T22:00:22.795Z,16.51
2023-05-19T22:03:25.438Z,16.47
2023-05-19T22:06:27.905Z,16.37
2023-05-19T22:09:30.362Z,16.42
2023-05-19T22:12:33.241Z,16.29
2023-05-19T22:15:35.639Z,16.38
2023-05-19T22:18:38.187Z,16.39
2023-05-19T22:21:41.098Z,16.30
2023-05-19T22:24:43.557Z,16.20
2023-05-19T22:27:46.066Z,16.19
2023-05-19T22:30:48.456Z,16.37
2023-05-19T22:33:50.920Z,16.32
2023-05-19T22:36:53.364Z,16.35
2023-05-19T22:39:55.761Z,16.40
2023-05-19T22:42:58.145Z,16.38
2023-05-19T22:46:00.711Z,16.36
2023-05-19T22:49:03.264Z,16.39
2023-05-19T22:52:06.134Z,16.31
2023-05-19T22:55:08.953Z,16.35
2023-05-19T22:58:11.356Z,16.32
2023-05-19T23:01:13.838Z,16.34
2023-05-19T23:04:16.327Z,16.29
2023-05-19T23:07:18.694Z,16.33
2023-05-19T23:10:21.149Z,16.29
2023-05-19T23:13:23.523Z,16.15
2023-05-19T23:16:26.113Z,16.15
2023-05-19T23:19:29.219Z,16.08
2023-05-19T23:22:31.728Z,15.84
2023-05-19T23:25:34.332Z,15.85
2023-05-19T23:28:36.898Z,15.87
2023-05-19T23:31:40.940Z,15.96
2023-05-19T23:34:43.392Z,15.78
2023-05-19T23:37:45.794Z,15.64
2023-05-19T23:40:48.166Z,15.61
2023-05-19T23:43:50.564Z,15.58
2023-05-19T23:46:53.054Z,15.40
2023-05-19T23:49:55.482Z,15.43
2023-05-19T23:52:57.882Z,15.32
2023-05-19T23:56:00.273Z,15.17
2023-05-19T23:59:02.653Z,15.12
